Time;durP1;ratioP1;P1;durP2;ratioP2;P2;SDS_P1;SDS_P2;PMS_P1;PMS_P2;Temp;Humidity;BMP_temperature;BMP_pressure;BME280_temperature;BME280_humidity;BME280_pressure;Samples;Min_cycle;Max_cycle;Signal;HPM_P1;HPM_P2
2023/12/19 00:00:09;;;;;;;7.88;5.53;;;1.90;90.40;;;;;;4946830;28;20054;-61
2023/12/19 00:02:34;;;;;;;8.75;5.93;;;1.90;90.40;;;;;;4946333;28;20415;-61
2023/12/19 00:05:00;;;;;;;8.18;5.90;;;1.90;90.40;;;;;;4944670;28;20047;-62
2023/12/19 00:07:30;;;;;;;8.18;5.95;;;1.90;90.30;;;;;;4947833;28;20058;-63
2023/12/19 00:09:56;;;;;;;8.80;6.40;;;1.90;90.20;;;;;;4948999;28;20031;-63
2023/12/19 00:12:21;;;;;;;10.07;6.78;;;1.90;90.20;;;;;;4944762;28;20032;-61
2023/12/19 00:14:47;;;;;;;10.35;7.30;;;1.90;90.20;;;;;;4945956;28;20039;-63
2023/12/19 00:17:12;;;;;;;10.05;6.95;;;1.90;90.20;;;;;;4946779;28;20028;-60
2023/12/19 00:19:38;;;;;;;10.52;6.68;;;1.90;90.20;;;;;;4946699;28;20268;-62
2023/12/19 00:22:04;;;;;;;8.20;6.30;;;2.00;90.20;;;;;;4948684;28;20073;-60
2023/12/19 00:24:29;;;;;;;8.52;6.28;;;2.00;90.20;;;;;;4944344;28;20332;-60
2023/12/19 00:26:55;;;;;;;7.32;5.75;;;2.00;90.20;;;;;;4943889;28;20118;-61
2023/12/19 00:29:20;;;;;;;8.27;6.40;;;2.00;90.20;;;;;;4946214;28;20036;-62
2023/12/19 00:31:46;;;;;;;9.15;5.88;;;2.00;90.20;;;;;;4944080;28;20042;-61
2023/12/19 00:34:13;;;;;;;8.10;5.88;;;2.00;90.10;;;;;;4941248;28;20032;-61
2023/12/19 00:36:39;;;;;;;6.97;5.90;;;2.00;90.10;;;;;;4946497;28;20034;-63
2023/12/19 00:39:04;;;;;;;6.75;5.40;;;2.00;90.10;;;;;;4947698;28;20463;-60
2023/12/19 00:41:30;;;;;;;7.50;5.57;;;2.00;90.00;;;;;;4944134;28;20043;-60
2023/12/19 00:43:55;;;;;;;6.82;5.35;;;2.00;89.90;;;;;;4948561;28;20031;-62
2023/12/19 00:46:21;;;;;;;7.93;5.60;;;2.00;89.80;;;;;;4949114;28;20035;-62
2023/12/19 00:48:47;;;;;;;7.60;5.75;;;2.00;89.80;;;;;;4944146;28;20123;-62
2023/12/19 00:51:13;;;;;;;7.20;5.32;;;1.90;89.80;;;;;;4944441;28;20031;-63
2023/12/19 00:53:39;;;;;;;8.10;6.05;;;1.90;89.90;;;;;;4953766;28;20054;-61
2023/12/19 00:56:07;;;;;;;8.18;6.57;;;1.90;90.00;;;;;;4951153;28;20031;-59
2023/12/19 00:58:33;;;;;;;9.30;6.57;;;1.90;90.10;;;;;;4948570;28;20032;-61
2023/12/19 01:00:59;;;;;;;9.85;6.75;;;1.90;90.10;;;;;;4940865;28;20027;-62
2023/12/19 01:03:25;;;;;;;9.32;6.10;;;1.90;90.00;;;;;;4949410;28;20086;-61
2023/12/19 01:05:51;;;;;;;9.85;6.82;;;1.80;90.10;;;;;;4947990;28;20023;-63
2023/12/19 01:08:17;;;;;;;8.23;5.90;;;1.80;90.20;;;;;;4967889;28;20041;-62
2023/12/19 01:10:42;;;;;;;9.27;7.00;;;1.80;90.30;;;;;;4948527;28;20109;-62
2023/12/19 01:13:08;;;;;;;8.73;6.32;;;1.80;90.30;;;;;;4950368;28;20038;-63
2023/12/19 01:15:33;;;;;;;8.93;6.53;;;1.80;90.30;;;;;;4951471;28;20035;-61
2023/12/19 01:17:59;;;;;;;9.13;6.35;;;1.80;90.40;;;;;;4953335;28;20066;-60
2023/12/19 01:20:24;;;;;;;8.52;5.90;;;1.80;90.30;;;;;;4947724;28;20042;-63
2023/12/19 01:22:50;;;;;;;8.57;6.38;;;1.90;90.40;;;;;;4951428;28;20474;-63
2023/12/19 01:25:15;;;;;;;8.55;6.40;;;1.90;90.40;;;;;;4952963;28;20093;-62
2023/12/19 01:27:41;;;;;;;8.93;6.35;;;1.90;90.30;;;;;;4951174;28;20050;-62
2023/12/19 01:30:07;;;;;;;9.43;6.47;;;1.90;90.20;;;;;;4949842;28;20058;-62
2023/12/19 01:32:33;;;;;;;8.70;6.20;;;1.90;90.10;;;;;;4945115;28;20097;-63
2023/12/19 01:34:58;;;;;;;8.65;6.15;;;1.90;90.10;;;;;;4945480;28;20443;-63
2023/12/19 01:37:24;;;;;;;9.43;6.57;;;1.80;90.10;;;;;;4949067;28;20035;-61
2023/12/19 01:39:49;;;;;;;8.95;6.47;;;1.80;90.20;;;;;;4949932;28;20637;-62
2023/12/19 01:42:15;;;;;;;10.48;6.75;;;1.80;90.30;;;;;;4946431;28;20089;-61
2023/12/19 01:44:41;;;;;;;9.40;6.60;;;1.80;90.40;;;;;;4945034;28;20046;-62
2023/12/19 01:47:06;;;;;;;10.27;7.03;;;1.80;90.40;;;;;;4947700;28;20554;-62
2023/12/19 01:49:32;;;;;;;11.20;7.32;;;1.80;90.40;;;;;;4949727;28;20708;-61
2023/12/19 01:51:58;;;;;;;9.80;7.43;;;1.80;90.50;;;;;;4946922;28;20027;-62
2023/12/19 01:54:24;;;;;;;10.15;7.10;;;1.80;90.50;;;;;;4944620;28;20035;-62
2023/12/19 01:56:50;;;;;;;9.70;7.15;;;1.80;90.50;;;;;;4943788;28;20032;-62
2023/12/19 01:59:16;;;;;;;11.07;7.45;;;1.80;91.00;;;;;;4947903;28;20403;-63
2023/12/19 02:01:42;;;;;;;11.23;7.32;;;1.80;90.70;;;;;;4942351;28;20042;-63
2023/12/19 02:04:10;;;;;;;8.88;6.68;;;1.80;90.70;;;;;;4949765;28;20537;-63
2023/12/19 02:06:35;;;;;;;10.05;7.03;;;1.90;90.80;;;;;;4948523;28;20086;-63
2023/12/19 02:09:01;;;;;;;9.93;6.38;;;1.90;90.80;;;;;;4947351;28;20039;-62
2023/12/19 02:11:31;;;;;;;10.20;7.13;;;1.90;90.80;;;;;;4944054;28;20471;-62
2023/12/19 02:13:58;;;;;;;10.30;7.15;;;1.90;90.70;;;;;;4948999;28;20396;-62
2023/12/19 02:16:26;;;;;;;9.48;7.00;;;1.90;90.70;;;;;;4945167;28;20038;-62
2023/12/19 02:19:01;;;;;;;9.70;6.43;;;1.90;90.60;;;;;;4948790;28;20452;-62
2023/12/19 02:21:27;;;;;;;9.27;6.47;;;1.90;90.50;;;;;;4944741;28;20062;-62
2023/12/19 02:23:53;;;;;;;11.52;7.30;;;1.90;90.50;;;;;;4946436;28;20067;-62
2023/12/19 02:26:18;;;;;;;9.23;6.45;;;2.00;90.70;;;;;;4946890;28;20422;-62
2023/12/19 02:28:44;;;;;;;9.85;6.80;;;1.90;90.30;;;;;;4945936;28;20456;-62
2023/12/19 02:31:10;;;;;;;12.15;8.00;;;1.90;90.30;;;;;;4949073;28;20043;-61
2023/12/19 02:33:35;;;;;;;11.38;8.18;;;1.90;90.20;;;;;;4950878;28;20510;-63
2023/12/19 02:36:02;;;;;;;12.90;8.65;;;1.90;90.10;;;;;;4951141;28;20040;-61
2023/12/19 02:38:27;;;;;;;13.25;8.85;;;1.90;90.50;;;;;;4946080;28;20235;-63
2023/12/19 02:40:53;;;;;;;12.70;8.20;;;1.80;90.20;;;;;;4942929;28;20086;-61
2023/12/19 02:43:18;;;;;;;13.20;7.93;;;1.80;90.20;;;;;;4942782;28;20083;-61
2023/12/19 02:45:44;;;;;;;12.82;8.40;;;1.70;90.30;;;;;;4950124;28;20042;-62
2023/12/19 02:48:09;;;;;;;11.85;7.85;;;1.70;90.40;;;;;;4952406;28;20416;-63
2023/12/19 02:50:35;;;;;;;11.13;7.43;;;1.70;90.50;;;;;;4950594;28;20037;-63
2023/12/19 02:53:00;;;;;;;12.38;8.23;;;1.70;90.40;;;;;;4942470;28;20039;-63
2023/12/19 02:55:26;;;;;;;14.50;8.65;;;1.70;90.40;;;;;;4943515;28;20499;-62
2023/12/19 02:57:51;;;;;;;11.50;7.80;;;1.70;90.70;;;;;;4946635;28;20499;-63
2023/12/19 03:00:17;;;;;;;11.27;7.43;;;1.70;90.40;;;;;;4948970;28;20035;-62
2023/12/19 03:02:44;;;;;;;10.90;7.07;;;1.70;90.40;;;;;;4947773;28;20042;-61
2023/12/19 03:05:09;;;;;;;11.20;7.53;;;1.70;90.30;;;;;;4944559;28;20126;-61
2023/12/19 03:07:35;;;;;;;10.57;7.50;;;1.70;90.30;;;;;;4944783;28;20124;-61
2023/12/19 03:10:05;;;;;;;10.35;7.03;;;1.70;90.20;;;;;;4943300;28;20031;-61
2023/12/19 03:12:31;;;;;;;9.88;7.43;;;1.70;90.20;;;;;;4948932;28;20042;-62
2023/12/19 03:14:56;;;;;;;9.63;7.03;;;1.70;90.30;;;;;;4946832;28;20228;-62
2023/12/19 03:17:22;;;;;;;9.23;6.93;;;1.70;90.20;;;;;;4949026;28;20035;-62
2023/12/19 03:19:48;;;;;;;10.23;7.18;;;1.70;90.20;;;;;;4949525;28;20039;-62
2023/12/19 03:22:13;;;;;;;10.57;7.15;;;1.70;90.30;;;;;;4948143;28;20035;-62
2023/12/19 03:24:39;;;;;;;10.70;7.03;;;1.70;90.30;;;;;;4946695;28;20495;-61
2023/12/19 03:27:05;;;;;;;11.38;7.78;;;1.60;90.40;;;;;;4944828;28;20043;-61
2023/12/19 03:29:32;;;;;;;11.75;7.70;;;1.60;90.50;;;;;;4949816;28;20035;-62
2023/12/19 03:31:58;;;;;;;10.35;7.13;;;1.70;90.50;;;;;;4945984;28;20526;-62
2023/12/19 03:34:23;;;;;;;10.93;7.18;;;1.60;90.50;;;;;;4945889;28;20035;-62
2023/12/19 03:36:49;;;;;;;10.50;7.05;;;1.60;90.50;;;;;;4946732;28;20031;-63
2023/12/19 03:39:15;;;;;;;11.02;7.43;;;1.60;90.40;;;;;;4947532;28;20084;-62
2023/12/19 03:41:40;;;;;;;10.23;7.47;;;1.60;90.40;;;;;;4945621;28;20035;-63
2023/12/19 03:44:06;;;;;;;10.77;7.10;;;1.60;90.40;;;;;;4947838;28;20036;-61
2023/12/19 03:46:31;;;;;;;10.23;7.10;;;1.60;90.40;;;;;;4945624;28;20306;-62
2023/12/19 03:48:57;;;;;;;10.57;7.28;;;1.60;90.30;;;;;;4943040;28;20042;-61
2023/12/19 03:51:23;;;;;;;9.57;6.50;;;1.60;90.40;;;;;;4941674;28;20077;-60
2023/12/19 03:53:48;;;;;;;11.00;7.18;;;1.60;90.30;;;;;;4942849;28;20135;-61
2023/12/19 03:56:14;;;;;;;12.10;7.50;;;1.70;90.30;;;;;;4948128;28;20031;-61
2023/12/19 03:58:39;;;;;;;12.10;7.78;;;1.70;90.20;;;;;;4963938;28;20066;-61
2023/12/19 04:01:05;;;;;;;12.27;7.85;;;1.60;90.10;;;;;;4947121;28;20545;-63
2023/12/19 04:03:31;;;;;;;10.48;7.32;;;1.60;90.00;;;;;;4946998;28;20028;-62
2023/12/19 04:05:56;;;;;;;11.40;7.82;;;1.60;90.10;;;;;;4943777;28;20050;-59
2023/12/19 04:08:22;;;;;;;11.48;7.68;;;1.60;90.10;;;;;;4944434;28;20035;-62
2023/12/19 04:10:47;;;;;;;12.93;8.43;;;1.70;90.10;;;;;;4948292;28;20039;-60
2023/12/19 04:13:13;;;;;;;14.70;9.25;;;1.60;90.00;;;;;;4946673;28;20042;-62
2023/12/19 04:15:38;;;;;;;13.27;8.43;;;1.60;90.00;;;;;;4948014;28;20038;-62
2023/12/19 04:18:04;;;;;;;12.50;8.07;;;1.60;89.90;;;;;;4947589;28;20042;-62
2023/12/19 04:20:30;;;;;;;12.45;8.20;;;1.60;89.70;;;;;;4949661;28;20038;-60
2023/12/19 04:22:55;;;;;;;12.75;8.77;;;1.60;89.80;;;;;;4944549;28;20032;-60
2023/12/19 04:25:21;;;;;;;13.18;8.93;;;1.50;89.80;;;;;;4947042;28;20089;-59
2023/12/19 04:27:46;;;;;;;12.70;8.20;;;1.60;90.00;;;;;;4943621;28;20032;-57
2023/12/19 04:30:12;;;;;;;14.05;9.38;;;1.50;90.40;;;;;;4938344;28;20127;-61
2023/12/19 04:32:38;;;;;;;13.70;8.82;;;1.60;90.10;;;;;;4945925;28;20039;-59
2023/12/19 04:35:04;;;;;;;13.75;8.65;;;1.60;90.10;;;;;;4948102;28;20097;-60
2023/12/19 04:37:29;;;;;;;12.98;8.57;;;1.50;90.00;;;;;;4939021;28;20577;-62
2023/12/19 04:39:57;;;;;;;12.23;7.85;;;1.50;90.10;;;;;;4946264;28;20035;-62
2023/12/19 04:42:23;;;;;;;11.40;7.40;;;1.50;90.10;;;;;;4941679;28;20036;-62
2023/12/19 04:44:48;;;;;;;13.48;7.57;;;1.50;90.30;;;;;;4949618;28;20062;-60
2023/12/19 04:47:14;;;;;;;10.63;6.95;;;1.50;90.40;;;;;;4945988;28;20040;-59
2023/12/19 04:49:40;;;;;;;11.52;7.90;;;1.40;90.50;;;;;;4941363;28;20039;-62
2023/12/19 04:52:06;;;;;;;9.88;7.20;;;1.40;90.60;;;;;;4944136;28;20040;-60
2023/12/19 04:54:32;;;;;;;10.93;7.25;;;1.40;90.70;;;;;;4943004;28;20407;-60
2023/12/19 04:56:58;;;;;;;10.68;7.00;;;1.50;90.90;;;;;;4944698;28;20035;-61
2023/12/19 04:59:24;;;;;;;10.80;7.30;;;1.50;90.90;;;;;;4943803;28;20043;-61
2023/12/19 05:01:50;;;;;;;10.68;7.50;;;1.50;91.30;;;;;;4942190;28;20495;-60
2023/12/19 05:04:15;;;;;;;9.52;6.70;;;1.50;90.90;;;;;;4944182;28;20102;-62
2023/12/19 05:06:41;;;;;;;9.85;6.75;;;1.60;90.90;;;;;;4944460;28;20031;-62
2023/12/19 05:09:08;;;;;;;11.52;7.95;;;1.60;90.90;;;;;;4948761;28;20499;-62
2023/12/19 05:11:33;;;;;;;10.63;7.70;;;1.60;90.90;;;;;;4945245;28;20039;-62
2023/12/19 05:13:59;;;;;;;10.40;7.00;;;1.70;90.90;;;;;;4942663;28;20031;-61
2023/12/19 05:16:24;;;;;;;10.07;7.38;;;1.60;90.80;;;;;;4948453;28;20055;-61
2023/12/19 05:18:50;;;;;;;10.52;7.03;;;1.60;90.80;;;;;;4949030;28;20327;-60
2023/12/19 05:21:16;;;;;;;10.18;7.03;;;1.70;90.70;;;;;;4938564;28;20111;-62
2023/12/19 05:23:42;;;;;;;9.82;6.93;;;1.70;90.60;;;;;;4945428;28;20031;-62
2023/12/19 05:26:08;;;;;;;11.40;7.30;;;1.70;90.50;;;;;;4944379;28;20027;-59
2023/12/19 05:28:35;;;;;;;10.85;7.60;;;1.70;90.50;;;;;;4941818;28;20123;-62
2023/12/19 05:31:01;;;;;;;10.43;7.40;;;1.70;90.40;;;;;;4946822;28;20090;-62
2023/12/19 05:33:28;;;;;;;9.63;6.38;;;1.70;90.30;;;;;;4939881;28;20035;-59
2023/12/19 05:35:54;;;;;;;9.68;6.90;;;1.70;90.30;;;;;;4948648;28;20430;-62
2023/12/19 05:38:20;;;;;;;10.50;7.03;;;1.70;90.20;;;;;;4946155;28;20047;-62
2023/12/19 05:40:46;;;;;;;11.05;7.65;;;1.70;90.10;;;;;;4950840;28;20033;-61
2023/12/19 05:43:16;;;;;;;10.88;7.30;;;1.70;90.10;;;;;;4947705;28;20397;-60
2023/12/19 05:45:42;;;;;;;12.43;7.65;;;1.70;90.40;;;;;;4945619;28;20030;-61
2023/12/19 05:48:08;;;;;;;14.48;8.63;;;1.70;90.00;;;;;;4948422;28;20035;-61
2023/12/19 05:50:33;;;;;;;13.10;8.20;;;1.70;90.00;;;;;;4946052;28;20097;-60
2023/12/19 05:52:59;;;;;;;18.70;9.38;;;1.70;89.80;;;;;;4944066;28;20509;-61
2023/12/19 05:55:25;;;;;;;15.15;8.63;;;1.70;89.60;;;;;;4948763;28;20070;-61
2023/12/19 05:57:50;;;;;;;14.00;8.25;;;1.70;89.50;;;;;;4945398;28;20094;-62
2023/12/19 06:00:17;;;;;;;12.45;8.00;;;1.60;89.50;;;;;;4945220;28;20233;-62
2023/12/19 06:02:52;;;;;;;12.52;7.40;;;1.60;89.70;;;;;;4942918;28;20489;-62
2023/12/19 06:05:19;;;;;;;11.15;7.50;;;1.60;89.70;;;;;;4948477;28;20119;-62
2023/12/19 06:07:45;;;;;;;10.90;7.38;;;1.60;89.60;;;;;;4950714;28;20043;-63
2023/12/19 06:10:12;;;;;;;12.45;8.10;;;1.60;90.10;;;;;;4951144;28;20035;-63
2023/12/19 06:12:38;;;;;;;17.30;9.00;;;1.50;89.40;;;;;;4945122;28;20522;-60
2023/12/19 06:15:08;;;;;;;12.40;7.53;;;1.50;89.40;;;;;;4944299;28;20043;-60
2023/12/19 06:17:35;;;;;;;11.95;7.82;;;1.50;89.40;;;;;;4944025;28;20038;-60
2023/12/19 06:20:03;;;;;;;10.95;7.18;;;1.50;89.50;;;;;;4949694;28;20071;-62
2023/12/19 06:22:29;;;;;;;10.93;7.00;;;1.50;89.60;;;;;;4950191;28;20125;-62
2023/12/19 06:24:54;;;;;;;10.68;7.03;;;1.50;89.70;;;;;;4953116;28;20023;-61
2023/12/19 06:27:21;;;;;;;19.73;10.00;;;1.50;89.90;;;;;;4944490;28;20044;-61
2023/12/19 06:29:46;;;;;;;21.08;10.77;;;1.50;90.00;;;;;;4949094;28;20055;-62
2023/12/19 06:32:12;;;;;;;15.75;8.70;;;1.50;90.00;;;;;;4946593;28;20235;-60
2023/12/19 06:34:37;;;;;;;16.35;8.43;;;1.50;90.10;;;;;;4951276;28;20038;-58
2023/12/19 06:37:03;;;;;;;15.63;8.02;;;1.40;90.10;;;;;;4947174;28;20039;-62
2023/12/19 06:39:29;;;;;;;18.13;9.10;;;1.40;90.30;;;;;;4946729;28;20416;-61
2023/12/19 06:41:55;;;;;;;13.55;8.30;;;1.40;90.30;;;;;;4943979;28;20023;-62
2023/12/19 06:44:22;;;;;;;12.70;8.30;;;1.40;90.40;;;;;;4947348;28;20396;-61
2023/12/19 06:46:50;;;;;;;14.30;8.70;;;1.40;90.50;;;;;;4941368;28;20451;-60
2023/12/19 06:49:19;;;;;;;9.80;7.22;;;1.40;90.50;;;;;;4950798;28;20090;-59
2023/12/19 06:51:44;;;;;;;9.48;6.68;;;1.50;90.50;;;;;;4945687;28;20032;-59
2023/12/19 06:54:10;;;;;;;9.35;6.95;;;1.50;90.50;;;;;;4946105;28;20090;-59
2023/12/19 06:56:36;;;;;;;8.05;6.28;;;1.50;90.60;;;;;;4950279;28;20107;-59
2023/12/19 06:59:02;;;;;;;9.55;6.80;;;1.50;90.70;;;;;;4946955;28;20031;-63
2023/12/19 07:01:27;;;;;;;9.52;6.28;;;1.50;90.70;;;;;;4941877;28;20020;-64
2023/12/19 07:03:54;;;;;;;9.30;6.95;;;1.50;90.80;;;;;;4949248;28;20070;-63
2023/12/19 07:06:19;;;;;;;10.05;6.90;;;1.50;90.80;;;;;;4943049;28;20036;-61
2023/12/19 07:08:45;;;;;;;11.05;7.05;;;1.50;90.80;;;;;;4950946;28;20087;-59
2023/12/19 07:11:12;;;;;;;10.20;7.13;;;1.50;90.70;;;;;;4947901;28;20464;-62
2023/12/19 07:13:37;;;;;;;11.02;8.05;;;1.60;90.70;;;;;;4948688;28;20550;-62
2023/12/19 07:16:03;;;;;;;9.75;7.18;;;1.60;90.60;;;;;;4950098;28;20031;-58
2023/12/19 07:18:30;;;;;;;10.30;7.45;;;1.60;90.50;;;;;;4950942;28;20047;-62
2023/12/19 07:20:55;;;;;;;10.30;7.60;;;1.60;90.50;;;;;;4944129;28;20043;-63
2023/12/19 07:23:21;;;;;;;11.18;8.05;;;1.60;90.40;;;;;;4948361;28;20042;-62
2023/12/19 07:25:46;;;;;;;10.50;7.68;;;1.60;90.30;;;;;;4951726;28;20031;-61
2023/12/19 07:28:12;;;;;;;11.55;7.53;;;1.60;90.20;;;;;;4943849;28;20570;-61
2023/12/19 07:30:39;;;;;;;8.73;6.32;;;1.60;90.10;;;;;;4936008;28;21472;-60
2023/12/19 07:33:04;;;;;;;9.10;6.60;;;1.60;90.10;;;;;;4940008;28;20359;-61
2023/12/19 07:35:30;;;;;;;8.55;6.47;;;1.60;90.20;;;;;;4946128;28;20035;-62
2023/12/19 07:37:56;;;;;;;9.50;7.20;;;1.60;90.30;;;;;;4937859;28;20039;-63
2023/12/19 07:40:21;;;;;;;10.60;7.13;;;1.60;90.20;;;;;;4942824;28;20051;-62
2023/12/19 07:42:47;;;;;;;13.50;9.07;;;1.60;90.20;;;;;;4945163;28;20035;-62
2023/12/19 07:45:13;;;;;;;16.60;10.43;;;1.60;90.30;;;;;;4944391;28;20031;-61
2023/12/19 07:47:39;;;;;;;13.05;8.57;;;1.60;90.30;;;;;;4947888;28;20332;-62
2023/12/19 07:50:05;;;;;;;14.40;7.43;;;1.60;90.40;;;;;;4949504;28;20087;-61
2023/12/19 07:52:31;;;;;;;9.60;6.45;;;1.60;90.50;;;;;;4953503;28;20042;-62
2023/12/19 07:54:57;;;;;;;8.85;6.10;;;1.60;90.50;;;;;;4949201;28;20224;-62
2023/12/19 07:57:22;;;;;;;9.43;6.45;;;1.60;90.60;;;;;;4942765;28;20573;-64
2023/12/19 07:59:49;;;;;;;13.65;7.20;;;1.60;90.60;;;;;;4940034;28;20119;-63
2023/12/19 08:02:14;;;;;;;11.02;7.60;;;1.60;90.50;;;;;;4938166;28;20047;-61
2023/12/19 08:04:42;;;;;;;12.48;6.93;;;1.70;90.50;;;;;;4945967;28;20414;-61
2023/12/19 08:07:08;;;;;;;14.95;6.95;;;1.70;90.50;;;;;;4946174;28;20588;-63
2023/12/19 08:09:34;;;;;;;9.65;6.50;;;1.70;90.60;;;;;;4945090;28;20051;-63
2023/12/19 08:12:00;;;;;;;11.55;6.90;;;1.70;90.70;;;;;;4941125;28;20118;-63
2023/12/19 08:14:26;;;;;;;13.25;7.10;;;1.70;90.70;;;;;;4950539;28;20358;-62
2023/12/19 08:16:52;;;;;;;11.40;6.70;;;1.70;90.70;;;;;;4947392;28;20038;-64
2023/12/19 08:19:18;;;;;;;13.07;8.00;;;1.70;90.80;;;;;;4946955;28;20032;-63
2023/12/19 08:21:51;;;;;;;15.13;8.77;;;1.80;90.90;;;;;;4946895;28;20049;-62
2023/12/19 08:24:17;;;;;;;19.75;12.32;;;1.80;91.00;;;;;;4944804;28;20078;-62
2023/12/19 08:26:47;;;;;;;15.52;10.07;;;1.80;90.90;;;;;;4943384;28;20031;-63
2023/12/19 08:29:13;;;;;;;11.27;7.20;;;1.80;90.90;;;;;;4948571;28;20751;-62
2023/12/19 08:31:38;;;;;;;9.48;6.90;;;1.90;91.00;;;;;;4945396;28;20047;-62
2023/12/19 08:34:04;;;;;;;12.88;9.25;;;1.90;91.10;;;;;;4945589;28;20533;-63
2023/12/19 08:36:29;;;;;;;13.02;8.60;;;1.90;91.10;;;;;;4931592;28;20036;-61
2023/12/19 08:38:55;;;;;;;16.10;10.85;;;1.90;91.10;;;;;;4939045;28;20031;-62
2023/12/19 08:41:21;;;;;;;10.70;8.30;;;1.90;91.10;;;;;;4942889;28;20680;-62
2023/12/19 08:43:46;;;;;;;10.82;7.85;;;2.00;91.10;;;;;;4945148;28;20483;-62
2023/12/19 08:46:17;;;;;;;16.95;12.75;;;2.00;91.10;;;;;;4941142;28;20326;-64
2023/12/19 08:48:43;;;;;;;13.82;9.63;;;2.00;91.20;;;;;;4941189;28;20165;-62
2023/12/19 08:51:12;;;;;;;11.60;8.23;;;2.00;91.20;;;;;;4942712;28;20032;-59
2023/12/19 08:53:37;;;;;;;9.77;7.35;;;2.10;91.30;;;;;;4940138;28;20039;-62
2023/12/19 08:56:03;;;;;;;9.93;7.03;;;2.10;91.30;;;;;;4940447;28;20070;-62
2023/12/19 08:58:29;;;;;;;9.68;6.90;;;2.10;91.40;;;;;;4938184;28;20035;-61
2023/12/19 09:00:55;;;;;;;9.85;6.82;;;2.20;91.40;;;;;;4941050;28;20036;-61
2023/12/19 09:03:20;;;;;;;8.43;6.15;;;2.20;91.40;;;;;;4936504;28;22115;-59
2023/12/19 09:05:52;;;;;;;8.65;6.55;;;2.30;91.40;;;;;;4940751;28;20050;-62
2023/12/19 09:08:18;;;;;;;10.93;7.30;;;2.40;91.40;;;;;;4939692;28;20123;-59
2023/12/19 09:10:45;;;;;;;11.05;7.40;;;2.50;91.40;;;;;;4944473;28;21182;-62
2023/12/19 09:13:11;;;;;;;9.07;6.82;;;2.40;91.80;;;;;;4947155;28;20039;-60
2023/12/19 09:15:36;;;;;;;7.85;6.07;;;2.50;91.40;;;;;;4945112;28;20107;-60
2023/12/19 09:18:03;;;;;;;8.15;6.20;;;2.50;91.30;;;;;;4947403;28;20039;-61
2023/12/19 09:20:29;;;;;;;8.30;6.38;;;2.60;91.30;;;;;;4952999;28;20043;-61
2023/12/19 09:22:55;;;;;;;10.23;6.97;;;2.70;91.30;;;;;;4948806;28;20398;-60
2023/12/19 09:25:20;;;;;;;9.55;6.78;;;2.70;91.30;;;;;;4945217;28;20039;-62
2023/12/19 09:27:47;;;;;;;9.13;6.18;;;2.80;91.30;;;;;;4946187;28;20045;-62
2023/12/19 09:30:16;;;;;;;9.63;7.25;;;2.80;91.30;;;;;;4941815;28;20047;-61
2023/12/19 09:32:43;;;;;;;10.15;6.78;;;2.90;91.30;;;;;;4942993;28;20043;-61
2023/12/19 09:35:10;;;;;;;9.15;6.55;;;2.90;91.30;;;;;;4947427;28;20664;-61
2023/12/19 09:37:37;;;;;;;8.65;6.57;;;3.00;91.30;;;;;;4948616;28;20124;-61
2023/12/19 09:40:03;;;;;;;9.52;6.80;;;3.00;91.30;;;;;;4946678;28;20106;-60
2023/12/19 09:42:31;;;;;;;8.98;6.35;;;3.00;91.30;;;;;;4941182;28;20039;-60
2023/12/19 09:44:57;;;;;;;11.68;7.07;;;3.10;91.30;;;;;;4944277;28;20074;-61
2023/12/19 09:47:24;;;;;;;10.13;7.15;;;3.10;91.30;;;;;;4942579;28;20106;-60
2023/12/19 09:49:53;;;;;;;11.63;7.13;;;3.20;91.30;;;;;;4943662;28;20119;-61
2023/12/19 09:52:24;;;;;;;11.02;7.60;;;3.20;91.30;;;;;;4941838;28;20031;-59
2023/12/19 09:54:50;;;;;;;10.77;7.50;;;3.30;91.30;;;;;;4943086;28;20041;-60
2023/12/19 09:57:18;;;;;;;10.40;7.18;;;3.40;91.30;;;;;;4945055;28;20028;-61
2023/12/19 09:59:46;;;;;;;9.05;7.13;;;3.40;91.30;;;;;;4943498;28;20043;-61
2023/12/19 10:02:13;;;;;;;10.25;7.10;;;3.50;91.30;;;;;;4944701;28;20477;-59
2023/12/19 10:04:38;;;;;;;9.90;7.00;;;3.50;91.30;;;;;;4942823;28;20038;-62
2023/12/19 10:07:04;;;;;;;17.42;6.88;;;3.60;91.20;;;;;;4945265;28;20043;-63
2023/12/19 10:09:30;;;;;;;16.55;6.75;;;3.60;91.10;;;;;;4948154;28;20099;-63
2023/12/19 10:12:12;;;;;;;10.43;7.78;;;3.70;91.00;;;;;;4947364;28;20025;-62
2023/12/19 10:14:38;;;;;;;8.52;6.40;;;3.80;91.00;;;;;;4944624;28;20039;-61
2023/12/19 10:17:11;;;;;;;8.57;6.47;;;3.80;90.90;;;;;;4950065;28;20042;-63
2023/12/19 10:19:38;;;;;;;7.22;6.13;;;3.90;91.00;;;;;;4949326;28;20550;-63
2023/12/19 10:22:08;;;;;;;7.57;5.57;;;3.90;90.90;;;;;;4947112;28;20047;-62
2023/12/19 10:24:35;;;;;;;7.05;5.90;;;4.00;91.00;;;;;;4949961;28;20028;-62
2023/12/19 10:27:02;;;;;;;9.25;5.40;;;4.00;91.00;;;;;;4946351;28;20043;-60
2023/12/19 10:29:35;;;;;;;9.13;5.88;;;4.10;91.00;;;;;;4947096;28;20051;-61
2023/12/19 10:32:19;;;;;;;8.25;5.50;;;4.10;90.90;;;;;;4948259;28;20470;-61
2023/12/19 10:34:56;;;;;;;7.30;5.57;;;4.20;90.80;;;;;;4953291;28;20038;-60
2023/12/19 10:37:26;;;;;;;8.40;5.60;;;4.30;90.70;;;;;;4945824;28;20032;-63
2023/12/19 10:40:09;;;;;;;7.78;5.82;;;4.40;90.80;;;;;;4948628;28;20059;-61
2023/12/19 10:42:35;;;;;;;7.05;5.50;;;4.50;90.70;;;;;;4948071;28;20027;-61
2023/12/19 10:45:06;;;;;;;6.35;5.07;;;4.50;90.70;;;;;;4949755;28;20113;-60
2023/12/19 10:47:32;;;;;;;9.13;5.20;;;4.60;90.70;;;;;;4948800;28;20042;-62
2023/12/19 10:49:58;;;;;;;7.50;4.60;;;4.70;90.70;;;;;;4944527;28;20114;-62
2023/12/19 10:52:28;;;;;;;6.00;5.03;;;4.80;90.70;;;;;;4946814;28;20079;-63
2023/12/19 10:55:08;;;;;;;6.75;5.05;;;4.90;90.60;;;;;;4945052;28;20027;-63
2023/12/19 10:57:36;;;;;;;5.03;4.53;;;5.00;90.40;;;;;;4948513;28;20035;-63
2023/12/19 11:00:10;;;;;;;5.63;4.45;;;5.10;90.50;;;;;;4953249;28;20039;-62
2023/12/19 11:02:53;;;;;;;5.70;4.88;;;5.20;90.30;;;;;;4944659;28;20024;-64
2023/12/19 11:05:32;;;;;;;7.93;5.78;;;5.30;90.20;;;;;;4943881;28;20127;-64
2023/12/19 11:08:03;;;;;;;6.80;5.32;;;5.40;90.20;;;;;;4945032;28;20530;-65
2023/12/19 11:10:32;;;;;;;6.53;4.72;;;5.60;90.20;;;;;;4950538;28;20533;-65
2023/12/19 11:12:58;;;;;;;6.00;4.93;;;5.70;90.10;;;;;;4948084;28;20034;-65
2023/12/19 11:15:27;;;;;;;4.80;4.25;;;5.70;90.10;;;;;;4944125;28;20032;-65
2023/12/19 11:18:02;;;;;;;5.63;4.47;;;5.80;89.60;;;;;;4950622;28;20038;-65
2023/12/19 11:20:36;;;;;;;6.10;4.60;;;5.90;89.30;;;;;;4947122;28;20040;-65
2023/12/19 11:23:07;;;;;;;7.57;4.82;;;6.00;89.20;;;;;;4950063;28;20042;-64
2023/12/19 11:25:40;;;;;;;5.75;4.50;;;6.10;89.10;;;;;;4952504;28;20266;-64
2023/12/19 11:28:06;;;;;;;5.40;4.45;;;6.10;88.80;;;;;;4948138;28;20093;-65
2023/12/19 11:30:35;;;;;;;5.03;4.53;;;6.10;88.60;;;;;;4950310;28;20403;-64
2023/12/19 11:33:02;;;;;;;4.97;4.47;;;6.20;88.90;;;;;;4942933;28;20069;-64
2023/12/19 11:35:29;;;;;;;5.43;4.60;;;6.30;89.00;;;;;;4953685;28;20447;-64
2023/12/19 11:38:29;;;;;;;4.85;4.38;;;6.30;89.10;;;;;;4945538;28;20042;-63
2023/12/19 11:40:57;;;;;;;5.35;4.43;;;6.40;88.70;;;;;;4942159;28;20042;-64
2023/12/19 11:43:31;;;;;;;5.43;4.47;;;6.50;89.10;;;;;;4945902;28;20038;-64
2023/12/19 11:46:18;;;;;;;6.03;4.47;;;6.60;89.00;;;;;;4947540;28;20311;-64
2023/12/19 11:48:50;;;;;;;4.50;4.10;;;6.70;89.20;;;;;;4940922;28;20103;-64
2023/12/19 11:51:50;;;;;;;4.47;4.07;;;6.80;88.60;;;;;;4943322;28;20481;-64
2023/12/19 11:54:17;;;;;;;4.53;3.70;;;6.90;87.60;;;;;;4944744;28;20058;-64
2023/12/19 11:56:44;;;;;;;4.43;3.75;;;6.90;89.10;;;;;;4948177;28;20410;-64
2023/12/19 11:59:11;;;;;;;4.45;3.72;;;7.00;88.10;;;;;;4950462;28;20046;-64
2023/12/19 12:01:44;;;;;;;4.78;4.28;;;7.10;88.10;;;;;;4943627;28;20499;-61
2023/12/19 12:04:10;;;;;;;5.50;4.63;;;7.20;87.80;;;;;;4949797;28;20027;-64
2023/12/19 12:06:37;;;;;;;5.45;4.20;;;7.20;87.90;;;;;;4946087;28;20035;-62
2023/12/19 12:09:05;;;;;;;4.47;3.83;;;7.30;87.80;;;;;;4942274;28;20398;-63
2023/12/19 12:11:46;;;;;;;4.03;3.63;;;7.40;88.30;;;;;;4949957;28;20027;-64
2023/12/19 12:14:11;;;;;;;5.20;3.78;;;7.40;86.70;;;;;;4944326;28;20038;-62
2023/12/19 12:16:38;;;;;;;4.28;3.88;;;7.50;87.40;;;;;;4943203;28;20032;-63
2023/12/19 12:19:10;;;;;;;4.45;3.72;;;7.60;87.30;;;;;;4944317;28;20035;-64
2023/12/19 12:21:35;;;;;;;4.38;3.97;;;7.70;86.90;;;;;;4946621;28;20122;-64
2023/12/19 12:24:01;;;;;;;5.75;4.50;;;7.70;86.90;;;;;;4947445;28;20131;-64
2023/12/19 12:26:27;;;;;;;4.88;4.38;;;7.70;86.60;;;;;;4946486;28;20056;-64
2023/12/19 12:28:53;;;;;;;5.43;4.75;;;7.70;86.20;;;;;;4942898;28;20073;-64
2023/12/19 12:31:18;;;;;;;5.43;4.70;;;7.70;86.00;;;;;;4941871;28;20464;-64
2023/12/19 12:33:44;;;;;;;5.38;4.75;;;7.70;86.00;;;;;;4946696;28;20047;-63
2023/12/19 12:36:13;;;;;;;5.82;4.70;;;7.80;86.20;;;;;;4942079;28;20035;-62
2023/12/19 12:38:39;;;;;;;6.13;4.85;;;7.80;86.30;;;;;;4948061;28;20479;-63
2023/12/19 12:41:06;;;;;;;5.80;5.03;;;7.80;86.20;;;;;;4952637;28;20114;-63
2023/12/19 12:43:37;;;;;;;5.03;4.40;;;7.80;86.00;;;;;;4941638;28;20606;-64
2023/12/19 12:46:05;;;;;;;5.45;4.93;;;7.80;86.00;;;;;;4948476;28;20035;-64
2023/12/19 12:48:30;;;;;;;6.18;4.97;;;7.80;86.00;;;;;;4947094;28;20122;-63
2023/12/19 12:50:56;;;;;;;6.25;5.03;;;7.80;86.00;;;;;;4945874;28;20398;-63